Factoryville, New York
Current Conditions -  °F | °C
As of 5:55 PM on Wednesday 17 Dec 2014 (Local Time) from K6B0 Reporting Station
Light Rain Light Rain  
Wind Chill: 35°   Ceiling: 1200
Heat Index: 35°   Visibility: 1.7mi
Dew Point: 35°   Wind: 0mph
Humidity: 100%   Direction: NA
Pressure: 29.77"   Gusts: NA
Location:  43.9506°N, 73.5319°W
Report Text: K6B0 172255Z AUTO 00000KT 1 3/4SM -RA SCT003 BKN012 OVC020 02/02 A2977 RMK AO2 P0003 T00190019
Loading
Personal Weather Stations






























Interactive Weather Map New forecast layout! Learn more

10-Day Weather Forecast

Advertisements
Track Severe Weather on mobile